createdAt,value
2024-02-13T00:04:16.016Z,100.00
2024-02-13T00:09:21.994Z,100.00
2024-02-13T00:14:24.881Z,100.00
2024-02-13T00:19:32.015Z,100.00
2024-02-13T00:24:37.472Z,100.00
2024-02-13T00:29:41.038Z,100.00
2024-02-13T00:34:45.842Z,100.00
2024-02-13T00:39:49.975Z,100.00
2024-02-13T00:44:52.788Z,100.00
2024-02-13T00:49:56.436Z,100.00
2024-02-13T00:55:04.033Z,100.00
2024-02-13T01:00:12.842Z,100.00
2024-02-13T01:05:15.950Z,100.00
2024-02-13T01:10:20.119Z,100.00
2024-02-13T01:15:23.821Z,100.00
2024-02-13T01:20:26.968Z,100.00
2024-02-13T01:25:32.746Z,100.00
2024-02-13T01:30:35.836Z,100.00
2024-02-13T01:35:43.254Z,100.00
2024-02-13T01:40:47.953Z,100.00
2024-02-13T01:45:54.062Z,100.00
2024-02-13T01:50:58.102Z,100.00
2024-02-13T01:56:07.326Z,100.00
2024-02-13T02:01:12.215Z,100.00
2024-02-13T02:06:17.352Z,100.00
2024-02-13T02:11:25.848Z,100.00
2024-02-13T02:16:32.510Z,100.00
2024-02-13T02:21:36.857Z,100.00
2024-02-13T02:26:41.159Z,100.00
2024-02-13T02:31:43.922Z,100.00
2024-02-13T02:36:51.665Z,100.00
2024-02-13T02:41:57.599Z,100.00
2024-02-13T02:47:06.409Z,100.00
2024-02-13T02:52:09.305Z,100.00
2024-02-13T02:57:13.394Z,100.00
2024-02-13T03:02:16.478Z,100.00
2024-02-13T03:07:19.385Z,100.00
2024-02-13T03:12:23.980Z,100.00
2024-02-13T03:17:28.102Z,100.00
2024-02-13T03:22:36.800Z,100.00
2024-02-13T03:27:42.396Z,100.00
2024-02-13T03:32:45.916Z,100.00
2024-02-13T03:37:48.713Z,100.00
2024-02-13T03:42:53.031Z,100.00
2024-02-13T03:47:55.981Z,100.00
2024-02-13T03:52:58.718Z,100.00
2024-02-13T03:58:05.936Z,100.00
2024-02-13T04:03:10.635Z,100.00
2024-02-13T04:08:16.061Z,100.00
2024-02-13T04:13:20.393Z,100.00
2024-02-13T04:18:43.115Z,100.00
2024-02-13T04:24:07.947Z,100.00
2024-02-13T04:29:33.209Z,100.00
2024-02-13T04:34:56.029Z,100.00
2024-02-13T04:40:19.490Z,100.00
2024-02-13T04:45:43.596Z,100.00
2024-02-13T04:51:07.117Z,100.00
2024-02-13T04:56:10.265Z,100.00
2024-02-13T05:01:15.630Z,100.00
2024-02-13T05:06:35.797Z,100.00
2024-02-13T05:11:40.801Z,100.00
2024-02-13T05:16:44.883Z,100.00
2024-02-13T05:21:47.629Z,100.00
2024-02-13T05:26:50.275Z,100.00
2024-02-13T05:31:54.340Z,100.00
2024-02-13T05:36:59.158Z,100.00
2024-02-13T05:42:03.039Z,100.00
2024-02-13T05:47:07.615Z,100.00
2024-02-13T05:52:10.356Z,100.00
2024-02-13T05:57:13.050Z,100.00
2024-02-13T06:02:18.164Z,100.00
2024-02-13T06:07:20.796Z,100.00
2024-02-13T06:12:23.558Z,100.00
2024-02-13T06:17:27.768Z,100.00
2024-02-13T06:22:30.530Z,100.00
2024-02-13T06:27:34.023Z,100.00
2024-02-13T06:32:38.936Z,100.00
2024-02-13T06:37:42.063Z,100.00
2024-02-13T06:42:44.707Z,100.00
2024-02-13T06:47:48.896Z,100.00
2024-02-13T06:52:53.280Z,100.00
2024-02-13T06:57:58.291Z,100.00
2024-02-13T07:03:03.929Z,100.00
2024-02-13T07:08:07.158Z,100.00
2024-02-13T07:13:09.880Z,100.00
2024-02-13T07:18:13.967Z,100.00
2024-02-13T07:23:16.707Z,100.00
2024-02-13T07:28:19.361Z,100.00
2024-02-13T07:33:24.198Z,100.00
2024-02-13T07:38:26.935Z,100.00
2024-02-13T07:43:36.938Z,100.00
2024-02-13T07:48:41.088Z,100.00
2024-02-13T07:53:44.122Z,100.00
2024-02-13T07:58:48.865Z,100.00
2024-02-13T08:03:53.007Z,100.00
2024-02-13T08:08:58.012Z,100.00
2024-02-13T08:14:00.789Z,100.00
2024-02-13T08:19:04.881Z,100.00
2024-02-13T08:24:09.500Z,100.00
2024-02-13T08:29:12.682Z,100.00
2024-02-13T08:34:18.608Z,100.00
2024-02-13T08:39:23.923Z,100.00
2024-02-13T08:44:26.783Z,100.00
2024-02-13T08:49:31.434Z,100.00
2024-02-13T08:54:35.157Z,100.00
2024-02-13T08:59:38.181Z,100.00
2024-02-13T09:04:44.784Z,100.00
2024-02-13T09:09:47.608Z,100.00
2024-02-13T09:14:50.305Z,100.00
2024-02-13T09:19:54.449Z,100.00
2024-02-13T09:24:58.868Z,100.00
2024-02-13T09:30:04.740Z,100.00
2024-02-13T09:35:10.098Z,100.00
2024-02-13T09:40:15.210Z,100.00
2024-02-13T09:45:18.920Z,100.00
2024-02-13T09:50:30.974Z,100.00
2024-02-13T09:55:35.426Z,100.00
2024-02-13T10:00:38.790Z,100.00
2024-02-13T10:05:42.824Z,100.00
2024-02-13T10:10:46.138Z,100.00
2024-02-13T10:15:49.527Z,100.00
2024-02-13T10:20:53.733Z,100.00
2024-02-13T10:25:56.480Z,100.00
2024-02-13T10:31:00.446Z,100.00
2024-02-13T10:36:08.247Z,100.00
2024-02-13T10:41:22.695Z,100.00
2024-02-13T10:46:26.350Z,100.00
2024-02-13T10:51:33.905Z,100.00
2024-02-13T10:56:39.388Z,100.00
2024-02-13T11:01:44.687Z,100.00
2024-02-13T11:06:49.065Z,100.00
2024-02-13T11:11:53.377Z,100.00
2024-02-13T11:16:58.668Z,100.00
2024-02-13T11:22:02.722Z,100.00
2024-02-13T11:27:19.535Z,100.00
2024-02-13T11:32:34.329Z,100.00
2024-02-13T11:37:38.796Z,100.00
2024-02-13T11:42:44.269Z,100.00
2024-02-13T11:47:48.014Z,98.57
2024-02-13T11:52:53.010Z,97.33
2024-02-13T11:57:58.713Z,96.29
2024-02-13T12:03:02.697Z,96.67
2024-02-13T12:08:09.385Z,94.04
2024-02-13T12:13:14.886Z,93.79
2024-02-13T12:18:18.822Z,94.10
2024-02-13T12:23:22.991Z,92.67
2024-02-13T12:28:26.688Z,90.74
2024-02-13T12:33:33.482Z,91.99
2024-02-13T12:38:38.332Z,91.80
2024-02-13T12:43:42.929Z,90.72
2024-02-13T12:48:45.831Z,90.31
2024-02-13T12:53:52.347Z,89.12
2024-02-13T12:58:59.045Z,87.85
2024-02-13T13:04:04.192Z,87.32
2024-02-13T13:09:20.132Z,87.47
2024-02-13T13:14:29.907Z,86.92
2024-02-13T13:19:33.041Z,86.91
2024-02-13T13:24:39.688Z,88.83
2024-02-13T13:29:43.106Z,88.67
2024-02-13T13:34:46.867Z,86.69
2024-02-13T13:39:51.428Z,87.56
2024-02-13T13:44:56.717Z,91.98
2024-02-13T13:49:59.452Z,86.99
2024-02-13T13:55:06.170Z,84.58
2024-02-13T14:00:13.217Z,84.26
2024-02-13T14:05:15.984Z,83.81
2024-02-13T14:10:21.317Z,84.07
2024-02-13T14:15:27.512Z,83.91
2024-02-13T14:20:34.693Z,82.69
2024-02-13T14:25:40.075Z,83.92
2024-02-13T14:30:42.835Z,82.52
2024-02-13T14:35:48.726Z,82.77
2024-02-13T14:40:53.962Z,82.66
2024-02-13T14:46:02.106Z,82.54
2024-02-13T14:51:07.127Z,79.95
2024-02-13T14:56:12.685Z,81.50
2024-02-13T15:01:22.502Z,81.53
2024-02-13T15:06:25.422Z,81.95
2024-02-13T15:11:32.509Z,82.79
2024-02-13T15:16:35.640Z,83.21
2024-02-13T15:21:38.900Z,84.01
2024-02-13T15:26:43.795Z,84.45
2024-02-13T15:31:49.067Z,84.51
2024-02-13T15:37:10.669Z,84.36
2024-02-13T15:42:37.941Z,84.69
2024-02-13T15:47:40.995Z,84.83
2024-02-13T15:52:43.869Z,85.63
2024-02-13T15:57:48.221Z,86.86
2024-02-13T16:02:51.518Z,86.15
2024-02-13T16:07:54.321Z,88.47
2024-02-13T16:12:59.531Z,86.85
2024-02-13T16:18:02.289Z,86.28
2024-02-13T16:23:06.204Z,87.25
2024-02-13T16:28:10.314Z,86.53
2024-02-13T16:33:14.431Z,86.87
2024-02-13T16:38:18.265Z,87.55
2024-02-13T16:43:35.756Z,87.94
2024-02-13T16:48:38.912Z,87.07
2024-02-13T16:53:42.169Z,88.24
2024-02-13T16:58:46.703Z,88.82
2024-02-13T17:03:49.953Z,89.07
2024-02-13T17:08:52.668Z,88.79
2024-02-13T17:13:56.850Z,90.51
2024-02-13T17:18:59.775Z,88.96
2024-02-13T17:24:03.961Z,89.97
2024-02-13T17:29:08.832Z,90.57
2024-02-13T17:34:11.989Z,91.79
2024-02-13T17:39:16.930Z,92.20
2024-02-13T17:44:21.062Z,94.01
2024-02-13T17:49:25.845Z,95.98
2024-02-13T17:54:29.723Z,95.50
2024-02-13T17:59:35.011Z,95.40
2024-02-13T18:04:37.771Z,94.89
2024-02-13T18:09:40.448Z,96.16
2024-02-13T18:14:44.683Z,95.28
2024-02-13T18:19:49.140Z,95.02
2024-02-13T18:24:51.939Z,95.77
2024-02-13T18:29:56.073Z,95.00
2024-02-13T18:34:58.860Z,96.00
2024-02-13T18:40:02.130Z,95.92
2024-02-13T18:45:09.520Z,96.93
2024-02-13T18:50:19.020Z,96.33
2024-02-13T18:55:22.921Z,96.11
2024-02-13T19:00:28.174Z,98.85
2024-02-13T19:05:36.957Z,100.00
2024-02-13T19:10:41.744Z,100.00
2024-02-13T19:15:47.774Z,100.00
2024-02-13T19:20:55.624Z,100.00
2024-02-13T19:25:59.650Z,100.00
2024-02-13T19:31:05.726Z,100.00
2024-02-13T19:36:10.235Z,100.00
2024-02-13T19:41:13.155Z,100.00
2024-02-13T19:46:21.585Z,100.00
2024-02-13T19:51:24.803Z,100.00
2024-02-13T19:56:29.178Z,100.00
2024-02-13T20:01:33.825Z,100.00
2024-02-13T20:06:38.725Z,100.00
2024-02-13T20:11:44.361Z,100.00
2024-02-13T20:16:48.839Z,100.00
2024-02-13T20:21:51.672Z,100.00
2024-02-13T20:26:55.466Z,100.00
2024-02-13T20:31:59.746Z,100.00
2024-02-13T20:37:04.471Z,100.00
2024-02-13T20:42:08.407Z,100.00
2024-02-13T20:47:13.022Z,100.00
2024-02-13T20:52:16.437Z,100.00
2024-02-13T20:57:19.731Z,100.00
2024-02-13T21:02:23.918Z,100.00
2024-02-13T21:07:26.856Z,100.00
2024-02-13T21:12:30.282Z,100.00
2024-02-13T21:17:42.593Z,100.00
2024-02-13T21:22:59.541Z,100.00
2024-02-13T21:28:03.454Z,100.00
2024-02-13T21:33:11.942Z,100.00
2024-02-13T21:38:15.333Z,100.00
2024-02-13T21:43:18.447Z,100.00
2024-02-13T21:48:23.154Z,100.00
2024-02-13T21:53:26.122Z,100.00
2024-02-13T21:58:28.835Z,100.00
2024-02-13T22:03:38.170Z,100.00
2024-02-13T22:08:40.903Z,100.00
2024-02-13T22:13:43.931Z,100.00
2024-02-13T22:18:54.027Z,100.00
2024-02-13T22:23:59.824Z,100.00
2024-02-13T22:29:06.490Z,100.00
2024-02-13T22:34:14.757Z,100.00
2024-02-13T22:39:21.894Z,100.00
2024-02-13T22:44:25.709Z,100.00
2024-02-13T22:49:29.942Z,100.00
2024-02-13T22:54:32.964Z,100.00
2024-02-13T22:59:43.311Z,100.00
2024-02-13T23:04:51.435Z,100.00
2024-02-13T23:09:55.402Z,100.00
2024-02-13T23:15:01.286Z,100.00
2024-02-13T23:20:11.707Z,100.00
2024-02-13T23:25:15.664Z,100.00
2024-02-13T23:30:19.938Z,100.00
2024-02-13T23:35:25.602Z,100.00
2024-02-13T23:40:28.798Z,100.00
2024-02-13T23:45:31.646Z,100.00
2024-02-13T23:50:37.180Z,100.00
2024-02-13T23:55:41.302Z,100.00
